Time;durP1;ratioP1;P1;durP2;ratioP2;P2;SDS_P1;SDS_P2;PMS_P1;PMS_P2;Temp;Humidity;BMP_temperature;BMP_pressure;BME280_temperature;BME280_humidity;BME280_pressure;Samples;Min_cycle;Max_cycle;Signal;HPM_P1;HPM_P2
2022/06/21 00:03:05;;;;;;;6.65;4.35;;;;;;;17.39;61.44;100134.59;10405817;28;20048;-70
2022/06/21 00:08:14;;;;;;;3.97;3.58;;;;;;;17.46;61.85;100132.06;10407874;28;20240;-70
2022/06/21 00:13:19;;;;;;;4.57;3.80;;;;;;;17.33;61.05;100134.44;10416369;28;20137;-72
2022/06/21 00:18:24;;;;;;;6.15;3.72;;;;;;;17.03;61.24;100140.31;10422663;28;20168;-71
2022/06/21 00:23:28;;;;;;;4.50;3.95;;;;;;;16.95;61.80;100148.41;10422070;28;20049;-70
2022/06/21 00:28:30;;;;;;;5.80;4.00;;;;;;;16.94;61.53;100135.97;10410879;28;20048;-71
2022/06/21 00:33:31;;;;;;;5.20;4.28;;;;;;;16.78;61.85;100142.13;10413755;28;20113;-70
2022/06/21 00:38:34;;;;;;;5.32;4.80;;;;;;;16.66;62.47;100148.84;10413002;28;20114;-71
2022/06/21 00:43:43;;;;;;;4.63;4.22;;;;;;;16.55;62.82;100158.91;10413017;28;20119;-70
2022/06/21 00:48:46;;;;;;;5.43;4.28;;;;;;;16.46;62.93;100162.56;10413224;28;20095;-70
2022/06/21 00:53:56;;;;;;;5.20;4.65;;;;;;;16.40;62.93;100163.22;10413423;28;20167;-70
2022/06/21 00:59:14;;;;;;;5.35;4.85;;;;;;;16.29;63.29;100160.84;10404488;28;20140;-72
2022/06/21 01:04:29;;;;;;;4.70;4.15;;;;;;;16.21;63.56;100162.50;10403798;28;20041;-69
2022/06/21 01:09:51;;;;;;;4.28;3.42;;;;;;;16.31;63.82;100157.00;10402293;28;20049;-70
2022/06/21 01:15:05;;;;;;;6.93;4.20;;;;;;;16.42;63.34;100151.31;10423967;28;20037;-70
2022/06/21 01:20:11;;;;;;;6.70;4.50;;;;;;;16.34;62.78;100147.78;10415021;28;20533;-69
2022/06/21 01:25:23;;;;;;;5.32;4.03;;;;;;;16.17;63.30;100160.28;10408613;28;20049;-70
2022/06/21 01:30:27;;;;;;;4.70;4.30;;;;;;;16.03;63.36;100159.06;10415256;28;20046;-70
2022/06/21 01:36:01;;;;;;;5.32;4.50;;;;;;;15.97;63.92;100154.34;10415018;28;20174;-71
2022/06/21 01:41:10;;;;;;;5.00;3.53;;;;;;;15.83;64.03;100147.75;10402977;28;20049;-71
2022/06/21 01:46:19;;;;;;;5.30;4.20;;;;;;;15.76;64.29;100155.53;10410513;28;20045;-70
2022/06/21 01:51:38;;;;;;;4.63;3.60;;;;;;;15.74;64.52;100150.34;10404061;28;20040;-70
2022/06/21 01:56:41;;;;;;;7.43;4.57;;;;;;;15.74;64.77;100149.50;10408656;28;20568;-70
2022/06/21 02:01:54;;;;;;;4.18;3.88;;;;;;;15.71;64.12;100155.19;10404727;28;20587;-70
2022/06/21 02:07:01;;;;;;;6.53;4.40;;;;;;;15.56;64.50;100145.03;10408428;28;20067;-70
2022/06/21 02:12:09;;;;;;;5.43;4.20;;;;;;;15.43;64.63;100141.94;10400297;28;20051;-70
2022/06/21 02:17:22;;;;;;;4.95;4.45;;;;;;;15.31;64.79;100153.94;10414680;28;20044;-70
2022/06/21 02:22:27;;;;;;;5.00;3.87;;;;;;;15.23;65.63;100140.47;10336818;28;20046;-69
2022/06/21 02:27:32;;;;;;;4.30;3.90;;;;;;;15.18;64.86;100140.94;10361655;28;20049;-70
2022/06/21 02:32:39;;;;;;;3.78;3.42;;;;;;;15.28;65.06;100141.69;10345750;28;20610;-70
2022/06/21 02:37:42;;;;;;;6.03;4.30;;;;;;;15.19;64.84;100134.56;10345557;28;20092;-70
2022/06/21 02:42:45;;;;;;;5.63;3.65;;;;;;;14.99;65.11;100124.03;10361701;28;20053;-71
2022/06/21 02:47:49;;;;;;;4.25;3.67;;;;;;;14.88;65.47;100126.13;10373658;28;20124;-73
2022/06/21 02:52:55;;;;;;;5.55;4.25;;;;;;;14.78;66.05;100128.88;10367640;28;20056;-69
2022/06/21 02:58:06;;;;;;;4.68;3.67;;;;;;;14.79;65.82;100127.91;10396547;28;20063;-70
2022/06/21 03:03:15;;;;;;;4.15;3.67;;;;;;;14.83;66.39;100116.72;10417766;28;22015;-71
2022/06/21 03:08:18;;;;;;;4.55;4.15;;;;;;;14.87;65.95;100124.44;10409005;28;20057;-71
2022/06/21 03:13:28;;;;;;;4.70;4.30;;;;;;;14.88;65.72;100136.84;10412434;28;20051;-70
2022/06/21 03:18:38;;;;;;;6.32;4.32;;;;;;;14.76;66.12;100137.09;10407558;28;20608;-70
2022/06/21 03:23:44;;;;;;;5.75;4.38;;;;;;;14.65;66.85;100139.97;10402700;28;20754;-71
2022/06/21 03:28:46;;;;;;;5.45;4.68;;;;;;;14.63;67.24;100141.97;10409939;28;20080;-71
2022/06/21 03:33:52;;;;;;;4.95;4.47;;;;;;;14.60;67.44;100137.72;10402143;28;20076;-70
2022/06/21 03:39:01;;;;;;;5.68;4.55;;;;;;;14.48;67.87;100115.69;10409550;28;20176;-70
2022/06/21 03:44:14;;;;;;;5.40;4.28;;;;;;;14.42;68.46;100116.28;10399760;28;20258;-70
2022/06/21 03:49:38;;;;;;;5.03;4.07;;;;;;;14.41;68.69;100109.28;10408223;28;20122;-69
2022/06/21 03:54:45;;;;;;;6.53;4.38;;;;;;;14.40;68.49;100110.25;10408688;28;20086;-70
2022/06/21 03:59:53;;;;;;;6.55;4.07;;;;;;;14.39;68.48;100116.59;10412962;28;20412;-70
2022/06/21 04:05:11;;;;;;;6.80;4.32;;;;;;;14.47;67.73;100108.66;10412931;28;20053;-70
2022/06/21 04:10:25;;;;;;;4.10;3.70;;;;;;;14.55;67.74;100109.75;10418392;28;20045;-70
2022/06/21 04:15:32;;;;;;;6.47;4.78;;;;;;;14.48;67.65;100101.47;10410137;28;20072;-70
2022/06/21 04:20:46;;;;;;;4.07;3.70;;;;;;;14.47;68.26;100103.31;10411187;28;20846;-69
2022/06/21 04:25:59;;;;;;;5.03;4.63;;;;;;;14.33;70.06;100109.19;10416166;28;20135;-69
2022/06/21 04:31:19;;;;;;;5.28;4.53;;;;;;;14.38;69.25;100109.56;10420299;28;20503;-69
2022/06/21 04:36:35;;;;;;;5.13;4.68;;;;;;;14.45;69.04;100099.09;10427282;28;20052;-70
2022/06/21 04:41:43;;;;;;;5.55;5.03;;;;;;;14.48;69.08;100094.25;10410921;28;20048;-69
2022/06/21 04:46:59;;;;;;;5.50;4.50;;;;;;;14.54;69.07;100102.69;10412150;28;20052;-70
2022/06/21 04:52:08;;;;;;;4.18;3.88;;;;;;;14.58;69.54;100093.38;10409971;28;20437;-71
2022/06/21 04:57:29;;;;;;;5.43;4.25;;;;;;;14.66;69.53;100093.44;10399153;28;20172;-70
2022/06/21 05:02:38;;;;;;;4.45;4.03;;;;;;;14.73;69.16;100104.41;10388779;28;20045;-70
2022/06/21 05:07:49;;;;;;;5.05;4.55;;;;;;;14.78;69.52;100110.97;10394859;28;20136;-71
2022/06/21 05:12:52;;;;;;;5.03;4.28;;;;;;;14.84;69.15;100096.94;10399765;28;20049;-71
2022/06/21 05:17:58;;;;;;;3.97;3.67;;;;;;;14.89;69.37;100101.00;10408834;28;20490;-69
2022/06/21 05:23:04;;;;;;;4.38;3.50;;;;;;;14.98;69.34;100117.00;10403503;28;20056;-71
2022/06/21 05:28:45;;;;;;;4.38;4.00;;;;;;;15.05;69.77;100101.13;10393519;28;20067;-71
2022/06/21 05:33:51;;;;;;;4.43;4.00;;;;;;;15.21;69.25;100103.09;10391722;28;20753;-70
2022/06/21 05:38:57;;;;;;;4.72;3.92;;;;;;;15.19;69.01;100107.75;10396714;28;20120;-74
2022/06/21 05:44:30;;;;;;;4.78;4.05;;;;;;;15.38;68.98;100117.44;10398263;28;20063;-70
2022/06/21 05:49:34;;;;;;;4.37;3.70;;;;;;;15.51;68.13;100123.22;10397116;28;20194;-71
2022/06/21 05:54:42;;;;;;;5.13;3.78;;;;;;;15.66;67.97;100130.69;10395592;28;20052;-70
2022/06/21 05:59:43;;;;;;;5.57;3.92;;;;;;;15.83;66.57;100137.84;10394299;28;20045;-70
2022/06/21 06:04:53;;;;;;;4.50;3.60;;;;;;;15.93;66.34;100142.25;10390863;28;20052;-70
2022/06/21 06:09:58;;;;;;;3.95;3.30;;;;;;;15.96;67.17;100141.91;10395772;28;20833;-73
2022/06/21 06:15:08;;;;;;;6.38;3.30;;;;;;;16.13;67.40;100134.78;10396928;28;20064;-74
2022/06/21 06:20:24;;;;;;;3.85;3.53;;;;;;;16.21;66.36;100141.03;10391801;28;20079;-69
2022/06/21 06:25:35;;;;;;;3.47;3.17;;;;;;;16.36;65.95;100138.56;10390440;28;21017;-69
2022/06/21 06:30:52;;;;;;;4.57;3.22;;;;;;;16.50;65.84;100129.00;10388893;28;20117;-70
2022/06/21 06:35:56;;;;;;;3.40;3.10;;;;;;;16.63;65.83;100127.69;10401265;28;20522;-70
2022/06/21 06:41:23;;;;;;;3.50;3.20;;;;;;;16.79;65.09;100141.13;10408789;28;20707;-68
2022/06/21 06:46:36;;;;;;;4.00;3.60;;;;;;;16.85;64.66;100140.47;10396031;28;20045;-70
2022/06/21 06:52:02;;;;;;;5.68;3.20;;;;;;;17.03;63.89;100132.25;10340405;28;20099;-69
2022/06/21 06:57:19;;;;;;;6.82;3.63;;;;;;;17.22;63.34;100133.78;10391945;28;20045;-68
2022/06/21 07:02:31;;;;;;;5.35;3.67;;;;;;;17.31;61.73;100138.13;10388016;28;20810;-69
2022/06/21 07:07:41;;;;;;;4.30;3.88;;;;;;;17.36;62.67;100132.22;10392361;28;20385;-68
2022/06/21 07:12:43;;;;;;;4.50;4.07;;;;;;;17.53;62.21;100141.09;10387893;28;20041;-70
2022/06/21 07:17:56;;;;;;;4.57;4.18;;;;;;;17.71;61.81;100156.22;10391979;28;20118;-67
2022/06/21 07:22:58;;;;;;;4.38;3.90;;;;;;;17.74;61.73;100142.41;10387896;28;20050;-70
2022/06/21 07:28:30;;;;;;;6.78;5.53;;;;;;;17.93;61.08;100158.19;10389358;28;20512;-69
2022/06/21 07:33:40;;;;;;;5.07;4.30;;;;;;;18.09;60.98;100149.22;10378434;28;20575;-68
2022/06/21 07:39:06;;;;;;;3.70;3.40;;;;;;;18.32;60.61;100151.13;10392800;28;20715;-70
2022/06/21 07:44:25;;;;;;;6.95;4.90;;;;;;;18.60;59.07;100138.00;10391579;28;20056;-67
2022/06/21 07:49:44;;;;;;;6.50;4.93;;;;;;;18.61;58.83;100138.81;10387584;28;20040;-68
2022/06/21 07:54:53;;;;;;;5.95;5.45;;;;;;;18.83;59.10;100137.97;10391475;28;20491;-69
2022/06/21 08:00:16;;;;;;;6.82;5.22;;;;;;;18.89;58.59;100126.50;10385023;28;20439;-69
2022/06/21 08:06:41;;;;;;;7.38;5.00;;;;;;;19.06;57.72;100121.78;10387704;28;20072;-71
2022/06/21 08:11:01;;;;;;;6.28;5.18;;;;;;;19.45;57.32;100129.88;10388825;28;20076;-68
2022/06/21 08:16:12;;;;;;;5.18;4.68;;;;;;;19.74;56.24;100102.91;10395459;28;20055;-68
2022/06/21 08:21:18;;;;;;;6.28;4.55;;;;;;;19.87;55.49;100086.03;10386921;28;20074;-69
2022/06/21 08:26:41;;;;;;;5.07;3.90;;;;;;;20.00;54.79;100071.88;10389056;28;20049;-68
2022/06/21 08:31:50;;;;;;;4.23;3.83;;;;;;;20.20;53.95;100028.03;10400699;28;20340;-68
2022/06/21 08:37:00;;;;;;;4.95;3.10;;;;;;;20.48;53.65;99988.38;10414116;28;20059;-68
2022/06/21 08:42:29;;;;;;;3.03;2.70;;;;;;;20.94;51.24;99997.94;10413299;28;20053;-70
2022/06/21 08:48:09;;;;;;;5.60;2.58;;;;;;;21.26;48.49;99998.31;10399084;28;20609;-70
2022/06/21 08:53:23;;;;;;;3.50;2.45;;;;;;;21.70;48.10;99975.41;10410718;28;20040;-69
2022/06/21 08:58:52;;;;;;;3.60;1.98;;;;;;;22.05;45.03;99901.28;10412642;28;20529;-68
2022/06/21 09:04:06;;;;;;;5.35;2.47;;;;;;;22.25;45.59;99882.34;10390580;28;20721;-69
2022/06/21 09:09:26;;;;;;;6.22;2.15;;;;;;;22.12;42.69;99894.00;10390037;28;20648;-70
2022/06/21 09:14:37;;;;;;;5.03;1.77;;;;;;;22.26;43.60;99932.78;10391929;28;20238;-69
2022/06/21 09:20:06;;;;;;;4.63;1.90;;;;;;;22.47;41.51;99945.31;10404216;28;20223;-69
2022/06/21 09:25:17;;;;;;;2.00;1.63;;;;;;;22.55;40.71;100004.78;10405424;28;20258;-70
2022/06/21 09:30:44;;;;;;;4.32;1.80;;;;;;;22.91;39.72;99995.38;10399229;28;20173;-69
2022/06/21 09:35:54;;;;;;;4.10;1.45;;;;;;;23.30;39.94;99990.13;10403115;28;20045;-69
2022/06/21 09:41:04;;;;;;;3.47;1.63;;;;;;;23.53;39.50;99981.47;10394696;28;20163;-70
2022/06/21 09:46:34;;;;;;;4.18;1.65;;;;;;;23.99;38.38;99980.41;10396647;28;20587;-70
2022/06/21 09:51:42;;;;;;;3.13;1.80;;;;;;;24.51;38.40;99982.13;10393879;28;20103;-70
2022/06/21 09:56:56;;;;;;;3.03;1.30;;;;;;;24.72;37.58;99966.50;10397344;28;20108;-69
2022/06/21 10:02:05;;;;;;;5.13;2.15;;;;;;;24.75;38.39;99966.88;10397471;28;20060;-69
2022/06/21 10:07:29;;;;;;;5.35;2.00;;;;;;;24.59;38.74;99965.59;10394035;28;20063;-68
2022/06/21 10:12:36;;;;;;;4.03;1.88;;;;;;;24.38;39.38;99958.63;10395887;28;20198;-71
2022/06/21 10:18:11;;;;;;;4.07;2.15;;;;;;;24.52;38.58;99967.50;10394184;28;20126;-71
2022/06/21 10:23:46;;;;;;;4.78;1.80;;;;;;;25.06;37.50;99955.06;10396563;28;20051;-71
2022/06/21 10:29:03;;;;;;;3.03;1.88;;;;;;;25.33;37.49;99948.50;10431325;28;20075;-71
2022/06/21 10:34:22;;;;;;;2.63;2.10;;;;;;;25.98;37.15;99950.56;10402168;28;20150;-71
2022/06/21 10:39:31;;;;;;;3.03;1.60;;;;;;;26.65;36.04;99941.31;10337535;28;20127;-71
2022/06/21 10:44:38;;;;;;;2.60;1.35;;;;;;;26.92;35.41;99935.41;10314859;28;20057;-69
2022/06/21 10:50:08;;;;;;;3.83;1.15;;;;;;;26.86;34.08;99925.41;10391743;28;20048;-70
2022/06/21 10:55:48;;;;;;;5.15;1.63;;;;;;;27.11;32.35;99906.88;10392785;28;20053;-69
2022/06/21 11:01:17;;;;;;;1.67;1.38;;;;;;;27.30;31.76;99898.50;10388259;28;20051;-70
2022/06/21 11:06:45;;;;;;;4.40;1.35;;;;;;;27.51;31.47;99911.50;10390115;28;20057;-70
2022/06/21 11:12:52;;;;;;;5.13;1.25;;;;;;;27.32;31.30;99896.34;10386618;28;20087;-70
2022/06/21 11:17:37;;;;;;;2.92;0.77;;;;;;;26.75;30.00;99900.66;10385789;28;20526;-70
2022/06/21 11:22:43;;;;;;;1.40;0.90;;;;;;;26.22;31.69;99891.47;10388523;28;20049;-69
2022/06/21 11:27:57;;;;;;;1.75;0.80;;;;;;;25.98;31.45;99882.38;10388091;28;20049;-72
2022/06/21 11:33:09;;;;;;;2.22;1.02;;;;;;;25.77;32.05;99879.13;10385298;28;20291;-68
2022/06/21 11:38:32;;;;;;;3.30;0.80;;;;;;;25.63;31.92;99879.59;10392264;28;20068;-71
2022/06/21 11:44:03;;;;;;;5.18;1.05;;;;;;;25.75;32.35;99855.91;10385827;28;20171;-72
2022/06/21 11:49:32;;;;;;;1.65;0.88;;;;;;;26.32;31.19;99860.03;10336345;28;20053;-69
2022/06/21 11:54:53;;;;;;;1.85;0.70;;;;;;;26.84;30.56;99851.94;10383252;28;21304;-70
2022/06/21 12:00:07;;;;;;;2.05;0.82;;;;;;;26.74;29.81;99844.38;10386689;28;20548;-70
2022/06/21 12:05:30;;;;;;;1.45;0.70;;;;;;;27.13;29.60;99835.63;10393232;28;20049;-70
2022/06/21 12:11:00;;;;;;;1.77;0.70;;;;;;;27.17;30.19;99834.03;10393282;28;20139;-69
2022/06/21 12:16:16;;;;;;;2.28;0.68;;;;;;;27.44;29.48;99817.09;10395683;28;20113;-69
2022/06/21 12:21:24;;;;;;;1.80;0.80;;;;;;;26.98;27.89;99806.09;10397376;28;20576;-70
2022/06/21 12:26:29;;;;;;;2.17;0.90;;;;;;;27.20;27.38;99810.88;10399698;28;20045;-69
2022/06/21 12:31:35;;;;;;;4.63;1.00;;;;;;;27.87;26.60;99800.03;10413997;28;20045;-72
2022/06/21 12:36:45;;;;;;;1.63;0.80;;;;;;;28.23;27.20;99799.00;10407662;28;20064;-70
2022/06/21 12:42:07;;;;;;;2.03;0.93;;;;;;;27.77;26.52;99794.41;10407663;28;20502;-71
2022/06/21 12:47:30;;;;;;;4.00;1.00;;;;;;;27.71;27.50;99789.94;10410770;28;20161;-70
2022/06/21 12:52:54;;;;;;;2.38;0.80;;;;;;;27.97;27.23;99771.22;10399490;28;20114;-70
2022/06/21 12:58:02;;;;;;;2.90;0.80;;;;;;;28.13;27.45;99773.13;10400534;28;20838;-69
2022/06/21 13:03:32;;;;;;;3.88;1.23;;;;;;;28.19;26.21;99755.72;10399337;28;20135;-72
2022/06/21 13:08:56;;;;;;;2.35;0.70;;;;;;;28.17;28.54;99752.38;10395591;28;20110;-71
2022/06/21 13:14:03;;;;;;;3.25;1.20;;;;;;;28.04;27.79;99744.53;10397658;28;20148;-70
2022/06/21 13:19:07;;;;;;;2.25;1.10;;;;;;;28.00;27.42;99740.66;10383516;28;20726;-73
2022/06/21 13:24:30;;;;;;;1.80;0.88;;;;;;;27.92;27.47;99741.03;10390326;28;20254;-71
2022/06/21 13:29:48;;;;;;;2.35;1.02;;;;;;;27.56;27.84;99727.63;10394771;28;20062;-70
2022/06/21 13:35:02;;;;;;;2.63;1.02;;;;;;;27.40;29.09;99718.38;10392892;28;20084;-71
2022/06/21 13:40:07;;;;;;;2.22;0.77;;;;;;;27.50;29.68;99718.56;10395049;28;20488;-70
2022/06/21 13:45:30;;;;;;;1.52;0.73;;;;;;;27.64;29.16;99710.03;10394233;28;20149;-71
2022/06/21 13:51:04;;;;;;;2.08;1.38;;;;;;;27.54;28.19;99697.00;10389455;28;20136;-70
2022/06/21 13:56:21;;;;;;;3.78;1.92;;;;;;;27.54;28.23;99693.47;10390791;28;20049;-70
2022/06/21 14:01:44;;;;;;;4.60;1.52;;;;;;;27.49;28.13;99705.13;10394317;28;20053;-69
2022/06/21 14:07:30;;;;;;;1.40;0.73;;;;;;;27.41;28.86;99703.63;10391426;28;20049;-71
2022/06/21 14:13:03;;;;;;;1.52;0.80;;;;;;;27.42;27.78;99705.28;10387947;28;20063;-69
2022/06/21 14:18:12;;;;;;;;;;;;;;;27.27;27.08;99702.28;10391405;28;20060;-70
2022/06/21 14:23:28;;;;;;;1.38;0.75;;;;;;;27.03;28.79;99707.06;10391333;28;20041;-70
2022/06/21 14:28:37;;;;;;;2.58;0.95;;;;;;;26.64;29.01;99691.28;10391196;28;20053;-72
2022/06/21 14:33:42;;;;;;;3.30;0.80;;;;;;;26.51;29.18;99683.38;10393922;28;20052;-70
2022/06/21 14:39:12;;;;;;;1.98;1.08;;;;;;;26.40;29.53;99694.06;10391919;28;20081;-70
2022/06/21 14:44:27;;;;;;;1.92;1.02;;;;;;;26.37;30.23;99671.91;10386029;28;20056;-69
2022/06/21 14:49:45;;;;;;;2.47;1.13;;;;;;;26.32;30.26;99660.88;10377011;28;20056;-69
2022/06/21 14:55:40;;;;;;;1.75;1.00;;;;;;;26.11;29.40;99655.84;10386284;28;20068;-70
2022/06/21 15:01:33;;;;;;;1.77;1.00;;;;;;;26.02;30.41;99656.47;10295384;28;20052;-70
2022/06/21 15:06:36;;;;;;;5.83;1.37;;;;;;;26.07;30.59;99656.56;10389902;28;20056;-69
2022/06/21 15:11:53;;;;;;;0.90;0.70;;;;;;;26.04;30.93;99648.88;10383855;28;20079;-69
2022/06/21 15:17:17;;;;;;;2.70;1.00;;;;;;;26.05;29.59;99639.63;10387820;28;20684;-68
2022/06/21 15:22:29;;;;;;;1.67;0.70;;;;;;;26.01;30.55;99630.28;10388665;28;22260;-67
2022/06/21 15:27:36;;;;;;;3.40;1.25;;;;;;;25.99;29.97;99616.88;10385812;28;20698;-69
2022/06/21 15:32:46;;;;;;;2.20;0.98;;;;;;;26.03;30.49;99618.06;10389349;28;20665;-70
2022/06/21 15:37:56;;;;;;;2.45;0.90;;;;;;;26.02;29.81;99607.41;10390393;28;20562;-72
2022/06/21 15:43:02;;;;;;;2.20;1.13;;;;;;;26.01;30.04;99603.00;10404520;28;20144;-73
2022/06/21 15:53:56;;;;;;;1.77;0.90;;;;;;;26.08;29.96;99607.25;10391460;28;20773;-69
2022/06/21 15:59:13;;;;;;;3.35;0.90;;;;;;;26.10;30.34;99605.09;10391012;28;20049;-69
2022/06/21 16:04:27;;;;;;;3.20;0.98;;;;;;;26.13;30.44;99605.69;10388997;28;20655;-70
2022/06/21 16:09:37;;;;;;;1.33;0.70;;;;;;;26.11;30.18;99606.75;10381178;28;20141;-71
2022/06/21 16:14:55;;;;;;;2.08;0.95;;;;;;;26.13;29.88;99598.34;10378927;28;20514;-71
2022/06/21 16:20:10;;;;;;;3.38;1.65;;;;;;;26.16;29.74;99599.75;10377388;28;20064;-69
2022/06/21 16:25:25;;;;;;;2.83;1.13;;;;;;;26.16;30.00;99599.75;10385715;28;20053;-70
2022/06/21 16:30:37;;;;;;;3.38;1.48;;;;;;;26.16;30.01;99581.50;10383146;28;20157;-70
2022/06/21 16:35:48;;;;;;;1.03;0.80;;;;;;;26.17;30.31;99574.16;10399149;28;20140;-72
2022/06/21 16:46:40;;;;;;;1.25;0.52;;;;;;;26.09;30.35;99562.56;10382581;28;20103;-71
2022/06/21 16:51:45;;;;;;;1.70;1.02;;;;;;;26.07;30.38;99559.22;10394457;28;20339;-71
2022/06/21 16:56:47;;;;;;;1.85;0.95;;;;;;;26.04;29.77;99564.34;10396347;28;20138;-72
2022/06/21 17:01:53;;;;;;;2.88;1.10;;;;;;;26.01;30.75;99573.00;10408616;28;20059;-72
2022/06/21 17:06:59;;;;;;;1.45;0.60;;;;;;;25.98;30.77;99568.84;10403780;28;20163;-71
2022/06/21 17:12:08;;;;;;;3.10;1.35;;;;;;;26.00;30.58;99564.00;10407152;28;20057;-71
2022/06/21 17:17:24;;;;;;;1.83;0.90;;;;;;;26.01;30.47;99575.75;10402691;28;20122;-73
2022/06/21 17:22:37;;;;;;;4.00;1.17;;;;;;;25.94;30.32;99567.66;10413525;28;20056;-71
2022/06/21 17:27:55;;;;;;;2.72;1.13;;;;;;;25.91;30.21;99570.84;10406464;28;20682;-73
2022/06/21 17:33:11;;;;;;;1.35;0.80;;;;;;;25.83;30.32;99576.69;10403200;28;20248;-72
2022/06/21 17:38:29;;;;;;;2.20;1.23;;;;;;;25.77;30.69;99578.47;10434443;28;20045;-71
2022/06/21 17:43:52;;;;;;;3.35;0.90;;;;;;;25.70;30.64;99570.44;10402159;28;20059;-74
2022/06/21 17:48:59;;;;;;;3.15;0.93;;;;;;;25.62;30.78;99573.53;10395752;28;20068;-70
2022/06/21 17:54:07;;;;;;;2.55;1.10;;;;;;;25.57;30.41;99581.59;10399493;28;20076;-71
2022/06/21 17:59:16;;;;;;;2.45;0.52;;;;;;;25.51;30.98;99582.56;10400582;28;20903;-70
2022/06/21 18:04:28;;;;;;;1.95;0.68;;;;;;;25.40;30.90;99574.16;10395872;28;20784;-75
2022/06/21 18:09:49;;;;;;;2.13;0.75;;;;;;;25.30;35.11;99571.19;10393073;28;20041;-72
2022/06/21 18:14:53;;;;;;;3.20;0.93;;;;;;;25.18;33.52;99560.28;10393126;28;20919;-71
2022/06/21 18:20:13;;;;;;;2.50;0.70;;;;;;;25.05;33.42;99552.34;10403599;28;20091;-71
2022/06/21 18:25:26;;;;;;;1.30;0.90;;;;;;;24.95;32.95;99546.63;10397858;28;20049;-71
2022/06/21 18:30:57;;;;;;;2.83;1.00;;;;;;;24.80;33.65;99549.81;10398767;28;20551;-73
2022/06/21 18:36:21;;;;;;;1.60;0.80;;;;;;;24.68;33.92;99544.34;10395180;28;20513;-72
2022/06/21 18:41:45;;;;;;;1.52;0.90;;;;;;;24.57;33.84;99545.94;10392166;28;20053;-72
2022/06/21 18:47:22;;;;;;;2.55;0.98;;;;;;;24.58;33.06;99552.25;10384916;28;20049;-72
2022/06/21 18:52:45;;;;;;;4.13;1.38;;;;;;;24.58;33.07;99560.41;10389568;28;20087;-71
2022/06/21 18:58:18;;;;;;;1.67;0.90;;;;;;;24.49;34.20;99546.31;10390195;28;20051;-71
2022/06/21 19:03:36;;;;;;;3.45;1.10;;;;;;;24.34;36.01;99557.59;10389278;28;20119;-70
2022/06/21 19:08:51;;;;;;;1.83;0.60;;;;;;;24.16;37.09;99551.13;10390288;28;20153;-70
2022/06/21 19:13:52;;;;;;;3.58;1.20;;;;;;;24.06;37.73;99571.78;10387607;28;20404;-71
2022/06/21 19:19:24;;;;;;;1.90;1.25;;;;;;;23.88;37.88;99562.56;10388882;28;20562;-71
2022/06/21 19:25:05;;;;;;;2.08;0.90;;;;;;;23.81;38.10;99575.41;10383194;28;20044;-71
2022/06/21 19:30:14;;;;;;;1.15;0.90;;;;;;;23.68;38.19;99578.28;10386717;28;20145;-72
2022/06/21 19:35:33;;;;;;;1.80;0.90;;;;;;;23.55;38.28;99592.81;10386357;28;20049;-70
2022/06/21 19:40:56;;;;;;;1.13;1.00;;;;;;;23.44;38.39;99592.50;10387492;28;20047;-74
2022/06/21 19:46:14;;;;;;;1.23;0.80;;;;;;;23.32;38.76;99583.44;10385060;28;20686;-71
2022/06/21 19:51:25;;;;;;;2.40;0.85;;;;;;;23.22;39.27;99583.94;10390857;28;20214;-70
2022/06/21 19:56:29;;;;;;;2.42;0.88;;;;;;;23.09;38.98;99597.63;10388112;28;20052;-71
2022/06/21 20:01:32;;;;;;;2.85;0.93;;;;;;;22.98;39.26;99592.88;10390950;28;20132;-70
2022/06/21 20:06:52;;;;;;;2.25;0.98;;;;;;;22.69;39.29;99596.00;10386919;28;20632;-71
2022/06/21 20:12:03;;;;;;;2.25;1.20;;;;;;;22.68;39.68;99601.66;10386443;28;20084;-71
2022/06/21 20:17:22;;;;;;;1.10;0.85;;;;;;;22.43;40.31;99591.59;10385603;28;20833;-72
2022/06/21 20:23:01;;;;;;;2.42;1.00;;;;;;;22.50;42.92;99603.22;10384729;28;20073;-72
2022/06/21 20:28:15;;;;;;;3.10;1.10;;;;;;;22.47;41.24;99600.94;10427669;28;20211;-72
2022/06/21 20:33:23;;;;;;;2.00;1.42;;;;;;;22.27;41.02;99611.88;10413856;28;20049;-71
2022/06/21 20:38:32;;;;;;;2.63;1.20;;;;;;;22.32;41.30;99611.25;10408642;28;20463;-72
2022/06/21 20:43:36;;;;;;;3.42;1.25;;;;;;;22.16;41.79;99615.25;10409426;28;20048;-71
2022/06/21 20:48:38;;;;;;;2.45;1.20;;;;;;;22.02;42.00;99606.34;10413725;28;20053;-72
2022/06/21 20:53:39;;;;;;;1.67;1.10;;;;;;;22.02;41.38;99606.34;10416748;28;20057;-71
2022/06/21 20:58:45;;;;;;;1.95;0.90;;;;;;;21.97;41.62;99598.03;10409948;28;20099;-71
2022/06/21 21:03:53;;;;;;;1.20;0.85;;;;;;;21.83;41.87;99608.91;10443520;28;20566;-71
2022/06/21 21:09:01;;;;;;;1.55;0.90;;;;;;;21.81;41.89;99605.59;10414946;28;20427;-70
2022/06/21 21:14:09;;;;;;;1.85;0.90;;;;;;;21.84;41.38;99609.75;10412379;28;20067;-70
2022/06/21 21:19:28;;;;;;;1.67;0.82;;;;;;;21.67;41.40;99603.97;10417798;28;20044;-71
2022/06/21 21:25:06;;;;;;;2.33;0.70;;;;;;;21.59;41.75;99620.41;10400986;28;20045;-71
2022/06/21 21:30:09;;;;;;;2.40;0.70;;;;;;;21.54;42.17;99640.00;10419257;28;20075;-71
2022/06/21 21:35:14;;;;;;;;;;;;;;;21.52;42.01;99651.03;10418555;28;20091;-72
2022/06/21 21:40:45;;;;;;;1.55;0.88;;;;;;;21.55;42.06;99668.75;10421834;28;20188;-70
2022/06/21 21:46:03;;;;;;;2.97;0.63;;;;;;;21.44;42.42;99681.03;10403111;28;20603;-70
2022/06/21 21:51:05;;;;;;;2.67;0.85;;;;;;;21.49;42.14;99667.69;10406689;28;20049;-70
2022/06/21 21:56:16;;;;;;;4.82;1.10;;;;;;;21.48;42.01;99671.44;10410764;28;20052;-70
2022/06/21 22:01:22;;;;;;;1.88;0.90;;;;;;;21.43;42.17;99673.94;10409541;28;20489;-70
2022/06/21 22:06:37;;;;;;;2.45;1.25;;;;;;;21.36;42.38;99662.28;10403625;28;20044;-71
2022/06/21 22:12:02;;;;;;;3.22;1.05;;;;;;;21.34;42.46;99669.78;10412195;28;20044;-71
2022/06/21 22:17:18;;;;;;;1.48;1.05;;;;;;;21.19;42.47;99661.84;10406155;28;20626;-72
2022/06/21 22:22:40;;;;;;;0.90;0.63;;;;;;;21.19;43.17;99676.22;10414164;28;20048;-70
2022/06/21 22:27:48;;;;;;;0.77;0.65;;;;;;;21.17;42.88;99680.19;10407654;28;20688;-71
2022/06/21 22:32:52;;;;;;;1.77;0.80;;;;;;;21.10;42.86;99668.50;10411138;28;20045;-70
2022/06/21 22:37:54;;;;;;;2.92;0.80;;;;;;;21.04;42.91;99664.75;10411191;28;20655;-73
2022/06/21 22:42:55;;;;;;;2.60;0.85;;;;;;;21.04;42.99;99642.28;10408791;28;20134;-70
2022/06/21 22:48:01;;;;;;;1.30;0.80;;;;;;;21.04;42.69;99658.53;10413962;28;20056;-71
2022/06/21 22:53:07;;;;;;;1.55;0.77;;;;;;;21.05;42.89;99673.69;10410598;28;20489;-70
2022/06/21 22:58:11;;;;;;;0.70;0.50;;;;;;;21.02;42.96;99661.44;10406713;28;20049;-70
2022/06/21 23:03:26;;;;;;;2.40;0.70;;;;;;;21.02;42.64;99656.03;10418806;28;20101;-71
2022/06/21 23:08:37;;;;;;;1.98;1.42;;;;;;;21.01;42.42;99657.88;10419030;28;20769;-71
2022/06/21 23:13:42;;;;;;;2.03;1.05;;;;;;;20.92;42.98;99655.59;10397295;28;20053;-70
2022/06/21 23:18:44;;;;;;;3.20;0.90;;;;;;;20.87;43.04;99653.50;10397614;28;20551;-70
2022/06/21 23:23:46;;;;;;;2.72;1.23;;;;;;;20.87;43.16;99647.25;10404177;28;20083;-70
2022/06/21 23:28:48;;;;;;;1.65;0.93;;;;;;;20.81;43.27;99655.16;10401939;28;20055;-72
2022/06/21 23:33:50;;;;;;;1.33;0.73;;;;;;;20.84;43.10;99641.22;10412697;28;20123;-69
2022/06/21 23:39:04;;;;;;;1.52;0.80;;;;;;;20.84;43.14;99660.16;10397313;28;20079;-69
2022/06/21 23:44:15;;;;;;;;;;;;;;;20.81;43.46;99675.97;10408906;28;20041;-69
2022/06/21 23:49:31;;;;;;;1.77;0.73;;;;;;;20.84;43.83;99681.78;10402892;28;19946;-70
2022/06/21 23:54:34;;;;;;;1.27;0.90;;;;;;;20.88;43.62;99670.56;10409824;28;20309;-68
2022/06/21 23:59:38;;;;;;;1.30;1.07;;;;;;;20.87;43.34;99658.06;10402818;28;20048;-70
